sensor_id;sensor_type;location;lat;lon;timestamp;P1;durP1;ratioP1;P2;durP2;ratioP2
71204;SDS011;58935;54.498;18.544;2023-08-31T00:01:39;1.10;;;1.00;;
71204;SDS011;58935;54.498;18.544;2023-08-31T00:04:05;1.40;;;1.20;;
71204;SDS011;58935;54.498;18.544;2023-08-31T00:06:36;2.30;;;1.20;;
71204;SDS011;58935;54.498;18.544;2023-08-31T00:09:01;1.90;;;1.10;;
71204;SDS011;58935;54.498;18.544;2023-08-31T00:11:29;1.40;;;1.10;;
71204;SDS011;58935;54.498;18.544;2023-08-31T00:13:55;2.70;;;1.30;;
71204;SDS011;58935;54.498;18.544;2023-08-31T00:16:24;1.20;;;1.10;;
71204;SDS011;58935;54.498;18.544;2023-08-31T00:18:51;3.80;;;1.10;;
71204;SDS011;58935;54.498;18.544;2023-08-31T00:21:16;2.10;;;1.10;;
71204;SDS011;58935;54.498;18.544;2023-08-31T00:23:42;1.40;;;1.30;;
71204;SDS011;58935;54.498;18.544;2023-08-31T00:26:07;1.00;;;1.00;;
71204;SDS011;58935;54.498;18.544;2023-08-31T00:28:34;1.20;;;1.10;;
71204;SDS011;58935;54.498;18.544;2023-08-31T00:31:02;1.60;;;1.30;;
71204;SDS011;58935;54.498;18.544;2023-08-31T00:33:28;1.30;;;1.20;;
71204;SDS011;58935;54.498;18.544;2023-08-31T00:35:54;1.30;;;1.20;;
71204;SDS011;58935;54.498;18.544;2023-08-31T00:38:21;1.10;;;1.10;;
71204;SDS011;58935;54.498;18.544;2023-08-31T00:40:47;3.00;;;1.40;;
71204;SDS011;58935;54.498;18.544;2023-08-31T00:43:15;2.20;;;1.20;;
71204;SDS011;58935;54.498;18.544;2023-08-31T00:45:44;7.00;;;1.60;;
71204;SDS011;58935;54.498;18.544;2023-08-31T00:48:11;4.20;;;1.50;;
71204;SDS011;58935;54.498;18.544;2023-08-31T00:50:39;1.50;;;1.40;;
71204;SDS011;58935;54.498;18.544;2023-08-31T00:53:06;1.50;;;1.40;;
71204;SDS011;58935;54.498;18.544;2023-08-31T00:55:32;2.20;;;1.30;;
71204;SDS011;58935;54.498;18.544;2023-08-31T00:57:59;1.30;;;1.20;;
71204;SDS011;58935;54.498;18.544;2023-08-31T01:00:49;2.00;;;1.00;;
71204;SDS011;58935;54.498;18.544;2023-08-31T01:09:27;2.00;;;1.20;;
71204;SDS011;58935;54.498;18.544;2023-08-31T01:12:25;2.30;;;1.20;;
71204;SDS011;58935;54.498;18.544;2023-08-31T01:15:06;2.70;;;1.00;;
71204;SDS011;58935;54.498;18.544;2023-08-31T01:17:49;1.60;;;1.10;;
71204;SDS011;58935;54.498;18.544;2023-08-31T01:20:31;1.40;;;1.30;;
71204;SDS011;58935;54.498;18.544;2023-08-31T01:23:10;1.60;;;1.40;;
71204;SDS011;58935;54.498;18.544;2023-08-31T01:25:38;1.20;;;1.10;;
71204;SDS011;58935;54.498;18.544;2023-08-31T01:28:06;1.30;;;1.20;;
71204;SDS011;58935;54.498;18.544;2023-08-31T01:30:31;2.70;;;1.50;;
71204;SDS011;58935;54.498;18.544;2023-08-31T01:32:57;2.80;;;1.40;;
71204;SDS011;58935;54.498;18.544;2023-08-31T01:35:25;5.50;;;1.20;;
71204;SDS011;58935;54.498;18.544;2023-08-31T01:37:54;1.60;;;1.30;;
71204;SDS011;58935;54.498;18.544;2023-08-31T01:40:30;2.30;;;1.40;;
71204;SDS011;58935;54.498;18.544;2023-08-31T01:43:01;1.20;;;1.20;;
71204;SDS011;58935;54.498;18.544;2023-08-31T01:45:29;4.50;;;1.40;;
71204;SDS011;58935;54.498;18.544;2023-08-31T01:47:58;2.30;;;1.60;;
71204;SDS011;58935;54.498;18.544;2023-08-31T01:50:24;2.30;;;1.30;;
71204;SDS011;58935;54.498;18.544;2023-08-31T01:52:51;1.40;;;1.20;;
71204;SDS011;58935;54.498;18.544;2023-08-31T01:55:18;1.90;;;1.40;;
71204;SDS011;58935;54.498;18.544;2023-08-31T01:57:44;3.20;;;1.40;;
71204;SDS011;58935;54.498;18.544;2023-08-31T02:00:10;3.00;;;1.50;;
71204;SDS011;58935;54.498;18.544;2023-08-31T02:02:36;1.50;;;1.30;;
71204;SDS011;58935;54.498;18.544;2023-08-31T02:05:02;2.40;;;1.30;;
71204;SDS011;58935;54.498;18.544;2023-08-31T02:07:29;1.20;;;1.10;;
71204;SDS011;58935;54.498;18.544;2023-08-31T02:09:55;1.20;;;1.10;;
71204;SDS011;58935;54.498;18.544;2023-08-31T02:12:20;1.70;;;1.30;;
71204;SDS011;58935;54.498;18.544;2023-08-31T02:14:46;3.30;;;1.10;;
71204;SDS011;58935;54.498;18.544;2023-08-31T02:17:11;1.00;;;1.00;;
71204;SDS011;58935;54.498;18.544;2023-08-31T02:19:36;2.40;;;1.20;;
71204;SDS011;58935;54.498;18.544;2023-08-31T02:22:02;0.90;;;0.90;;
71204;SDS011;58935;54.498;18.544;2023-08-31T02:24:27;1.90;;;1.20;;
71204;SDS011;58935;54.498;18.544;2023-08-31T02:26:53;1.20;;;1.00;;
71204;SDS011;58935;54.498;18.544;2023-08-31T02:29:19;1.10;;;1.10;;
71204;SDS011;58935;54.498;18.544;2023-08-31T02:31:44;1.00;;;0.90;;
71204;SDS011;58935;54.498;18.544;2023-08-31T02:34:10;1.10;;;1.10;;
71204;SDS011;58935;54.498;18.544;2023-08-31T02:36:36;2.50;;;0.80;;
71204;SDS011;58935;54.498;18.544;2023-08-31T02:39:02;1.10;;;1.00;;
71204;SDS011;58935;54.498;18.544;2023-08-31T02:41:29;0.90;;;0.90;;
71204;SDS011;58935;54.498;18.544;2023-08-31T02:43:55;2.40;;;1.00;;
71204;SDS011;58935;54.498;18.544;2023-08-31T02:46:20;0.90;;;0.90;;
71204;SDS011;58935;54.498;18.544;2023-08-31T02:48:46;1.50;;;1.10;;
71204;SDS011;58935;54.498;18.544;2023-08-31T02:51:11;1.30;;;0.90;;
71204;SDS011;58935;54.498;18.544;2023-08-31T02:53:37;0.90;;;0.90;;
71204;SDS011;58935;54.498;18.544;2023-08-31T02:56:02;1.70;;;0.90;;
71204;SDS011;58935;54.498;18.544;2023-08-31T02:58:28;1.10;;;1.00;;
71204;SDS011;58935;54.498;18.544;2023-08-31T03:00:54;2.60;;;0.90;;
71204;SDS011;58935;54.498;18.544;2023-08-31T03:03:21;0.90;;;0.90;;
71204;SDS011;58935;54.498;18.544;2023-08-31T03:05:46;1.00;;;1.00;;
71204;SDS011;58935;54.498;18.544;2023-08-31T03:08:12;0.90;;;0.90;;
71204;SDS011;58935;54.498;18.544;2023-08-31T03:10:38;1.00;;;0.90;;
71204;SDS011;58935;54.498;18.544;2023-08-31T03:13:04;0.90;;;0.90;;
71204;SDS011;58935;54.498;18.544;2023-08-31T03:15:32;1.00;;;1.00;;
71204;SDS011;58935;54.498;18.544;2023-08-31T03:17:59;0.80;;;0.80;;
71204;SDS011;58935;54.498;18.544;2023-08-31T03:20:25;0.70;;;0.70;;
71204;SDS011;58935;54.498;18.544;2023-08-31T03:22:50;1.90;;;0.80;;
71204;SDS011;58935;54.498;18.544;2023-08-31T03:25:16;0.70;;;0.70;;
71204;SDS011;58935;54.498;18.544;2023-08-31T03:27:41;0.60;;;0.60;;
71204;SDS011;58935;54.498;18.544;2023-08-31T03:30:08;0.60;;;0.60;;
71204;SDS011;58935;54.498;18.544;2023-08-31T03:32:34;0.50;;;0.50;;
71204;SDS011;58935;54.498;18.544;2023-08-31T03:35:01;0.50;;;0.50;;
71204;SDS011;58935;54.498;18.544;2023-08-31T03:37:28;1.80;;;0.60;;
71204;SDS011;58935;54.498;18.544;2023-08-31T03:39:54;0.50;;;0.50;;
71204;SDS011;58935;54.498;18.544;2023-08-31T03:42:19;0.50;;;0.50;;
71204;SDS011;58935;54.498;18.544;2023-08-31T03:44:44;0.70;;;0.50;;
71204;SDS011;58935;54.498;18.544;2023-08-31T03:47:10;0.60;;;0.60;;
71204;SDS011;58935;54.498;18.544;2023-08-31T03:49:35;1.40;;;0.70;;
71204;SDS011;58935;54.498;18.544;2023-08-31T03:52:00;1.70;;;0.70;;
71204;SDS011;58935;54.498;18.544;2023-08-31T03:54:26;0.40;;;0.40;;
71204;SDS011;58935;54.498;18.544;2023-08-31T03:56:52;0.80;;;0.80;;
71204;SDS011;58935;54.498;18.544;2023-08-31T03:59:17;1.20;;;0.70;;
71204;SDS011;58935;54.498;18.544;2023-08-31T04:01:43;1.00;;;0.60;;
71204;SDS011;58935;54.498;18.544;2023-08-31T04:04:09;0.50;;;0.50;;
71204;SDS011;58935;54.498;18.544;2023-08-31T04:06:35;2.60;;;0.80;;
71204;SDS011;58935;54.498;18.544;2023-08-31T04:09:00;0.80;;;0.80;;
71204;SDS011;58935;54.498;18.544;2023-08-31T04:11:26;0.70;;;0.70;;
71204;SDS011;58935;54.498;18.544;2023-08-31T04:13:52;0.70;;;0.70;;
71204;SDS011;58935;54.498;18.544;2023-08-31T04:16:17;0.90;;;0.70;;
71204;SDS011;58935;54.498;18.544;2023-08-31T04:18:42;2.40;;;1.10;;
71204;SDS011;58935;54.498;18.544;2023-08-31T04:21:08;1.40;;;0.80;;
71204;SDS011;58935;54.498;18.544;2023-08-31T04:23:33;1.00;;;1.00;;
71204;SDS011;58935;54.498;18.544;2023-08-31T04:25:59;3.10;;;1.10;;
71204;SDS011;58935;54.498;18.544;2023-08-31T04:28:25;1.10;;;1.00;;
71204;SDS011;58935;54.498;18.544;2023-08-31T04:30:51;1.00;;;0.90;;
71204;SDS011;58935;54.498;18.544;2023-08-31T04:33:17;0.90;;;0.80;;
71204;SDS011;58935;54.498;18.544;2023-08-31T04:39:04;0.80;;;0.80;;
71204;SDS011;58935;54.498;18.544;2023-08-31T04:41:30;4.90;;;1.10;;
71204;SDS011;58935;54.498;18.544;2023-08-31T04:43:55;1.10;;;1.00;;
71204;SDS011;58935;54.498;18.544;2023-08-31T04:46:21;3.00;;;1.00;;
71204;SDS011;58935;54.498;18.544;2023-08-31T04:48:46;1.00;;;0.90;;
71204;SDS011;58935;54.498;18.544;2023-08-31T04:51:30;4.80;;;1.10;;
71204;SDS011;58935;54.498;18.544;2023-08-31T04:53:58;1.30;;;0.90;;
71204;SDS011;58935;54.498;18.544;2023-08-31T04:56:24;1.20;;;1.00;;
71204;SDS011;58935;54.498;18.544;2023-08-31T04:58:50;1.00;;;0.90;;
71204;SDS011;58935;54.498;18.544;2023-08-31T05:01:15;0.90;;;0.90;;
71204;SDS011;58935;54.498;18.544;2023-08-31T05:03:41;1.40;;;1.20;;
71204;SDS011;58935;54.498;18.544;2023-08-31T05:06:07;1.30;;;1.20;;
71204;SDS011;58935;54.498;18.544;2023-08-31T05:08:33;1.20;;;1.10;;
71204;SDS011;58935;54.498;18.544;2023-08-31T05:10:59;2.40;;;1.10;;
71204;SDS011;58935;54.498;18.544;2023-08-31T05:13:24;3.90;;;1.20;;
71204;SDS011;58935;54.498;18.544;2023-08-31T05:15:49;3.20;;;1.20;;
71204;SDS011;58935;54.498;18.544;2023-08-31T05:18:15;1.00;;;1.00;;
71204;SDS011;58935;54.498;18.544;2023-08-31T05:20:44;3.00;;;1.50;;
71204;SDS011;58935;54.498;18.544;2023-08-31T05:23:11;1.30;;;1.10;;
71204;SDS011;58935;54.498;18.544;2023-08-31T05:25:41;1.00;;;1.00;;
71204;SDS011;58935;54.498;18.544;2023-08-31T05:28:07;1.10;;;1.00;;
71204;SDS011;58935;54.498;18.544;2023-08-31T05:30:33;1.90;;;1.00;;
71204;SDS011;58935;54.498;18.544;2023-08-31T05:33:00;2.30;;;0.90;;
71204;SDS011;58935;54.498;18.544;2023-08-31T05:35:26;1.10;;;1.00;;
71204;SDS011;58935;54.498;18.544;2023-08-31T05:37:52;1.10;;;1.00;;
71204;SDS011;58935;54.498;18.544;2023-08-31T05:40:17;1.10;;;1.10;;
71204;SDS011;58935;54.498;18.544;2023-08-31T05:42:43;1.70;;;0.90;;
71204;SDS011;58935;54.498;18.544;2023-08-31T05:45:09;2.20;;;1.20;;
71204;SDS011;58935;54.498;18.544;2023-08-31T05:47:35;5.20;;;1.20;;
71204;SDS011;58935;54.498;18.544;2023-08-31T05:50:01;1.30;;;1.20;;
71204;SDS011;58935;54.498;18.544;2023-08-31T05:52:28;3.30;;;1.00;;
71204;SDS011;58935;54.498;18.544;2023-08-31T05:54:53;3.10;;;1.60;;
71204;SDS011;58935;54.498;18.544;2023-08-31T05:57:19;2.50;;;1.30;;
71204;SDS011;58935;54.498;18.544;2023-08-31T05:59:47;2.80;;;1.60;;
71204;SDS011;58935;54.498;18.544;2023-08-31T06:02:13;3.00;;;1.60;;
71204;SDS011;58935;54.498;18.544;2023-08-31T06:04:38;3.80;;;1.60;;
71204;SDS011;58935;54.498;18.544;2023-08-31T06:07:03;1.70;;;1.60;;
71204;SDS011;58935;54.498;18.544;2023-08-31T06:09:29;4.10;;;1.70;;
71204;SDS011;58935;54.498;18.544;2023-08-31T06:11:55;6.40;;;1.90;;
71204;SDS011;58935;54.498;18.544;2023-08-31T06:14:20;3.90;;;1.70;;
71204;SDS011;58935;54.498;18.544;2023-08-31T06:16:45;3.70;;;2.00;;
71204;SDS011;58935;54.498;18.544;2023-08-31T06:19:10;1.70;;;1.60;;
71204;SDS011;58935;54.498;18.544;2023-08-31T06:21:36;5.00;;;1.80;;
71204;SDS011;58935;54.498;18.544;2023-08-31T06:24:01;6.20;;;1.90;;
71204;SDS011;58935;54.498;18.544;2023-08-31T06:26:28;5.40;;;3.30;;
71204;SDS011;58935;54.498;18.544;2023-08-31T06:28:54;17.80;;;2.10;;
71204;SDS011;58935;54.498;18.544;2023-08-31T06:31:19;5.40;;;1.80;;
71204;SDS011;58935;54.498;18.544;2023-08-31T06:33:44;2.80;;;2.00;;
71204;SDS011;58935;54.498;18.544;2023-08-31T06:36:10;2.30;;;1.50;;
71204;SDS011;58935;54.498;18.544;2023-08-31T06:38:35;4.00;;;2.10;;
71204;SDS011;58935;54.498;18.544;2023-08-31T06:41:02;2.80;;;1.80;;
71204;SDS011;58935;54.498;18.544;2023-08-31T06:43:27;3.60;;;1.40;;
71204;SDS011;58935;54.498;18.544;2023-08-31T06:45:53;3.90;;;1.50;;
71204;SDS011;58935;54.498;18.544;2023-08-31T06:48:19;2.50;;;1.60;;
71204;SDS011;58935;54.498;18.544;2023-08-31T06:50:44;1.50;;;1.40;;
71204;SDS011;58935;54.498;18.544;2023-08-31T06:53:09;1.60;;;1.20;;
71204;SDS011;58935;54.498;18.544;2023-08-31T06:55:35;1.90;;;1.20;;
71204;SDS011;58935;54.498;18.544;2023-08-31T06:58:01;2.70;;;1.60;;
71204;SDS011;58935;54.498;18.544;2023-08-31T07:00:29;1.50;;;1.20;;
71204;SDS011;58935;54.498;18.544;2023-08-31T07:02:55;4.40;;;1.50;;
71204;SDS011;58935;54.498;18.544;2023-08-31T07:05:24;1.40;;;1.20;;
71204;SDS011;58935;54.498;18.544;2023-08-31T07:07:54;1.20;;;1.10;;
71204;SDS011;58935;54.498;18.544;2023-08-31T07:10:20;1.20;;;1.10;;
71204;SDS011;58935;54.498;18.544;2023-08-31T07:12:46;1.10;;;1.10;;
71204;SDS011;58935;54.498;18.544;2023-08-31T07:15:12;1.90;;;1.40;;
71204;SDS011;58935;54.498;18.544;2023-08-31T07:17:37;1.40;;;1.30;;
71204;SDS011;58935;54.498;18.544;2023-08-31T07:20:03;2.30;;;1.20;;
71204;SDS011;58935;54.498;18.544;2023-08-31T07:22:32;3.30;;;1.40;;
71204;SDS011;58935;54.498;18.544;2023-08-31T07:24:59;2.30;;;1.30;;
71204;SDS011;58935;54.498;18.544;2023-08-31T07:27:24;1.30;;;1.00;;
71204;SDS011;58935;54.498;18.544;2023-08-31T07:29:50;2.30;;;1.20;;
71204;SDS011;58935;54.498;18.544;2023-08-31T07:32:15;4.70;;;1.20;;
71204;SDS011;58935;54.498;18.544;2023-08-31T07:34:41;2.30;;;1.20;;
71204;SDS011;58935;54.498;18.544;2023-08-31T07:37:06;3.30;;;1.50;;
71204;SDS011;58935;54.498;18.544;2023-08-31T07:39:32;2.00;;;1.40;;
71204;SDS011;58935;54.498;18.544;2023-08-31T07:41:57;7.10;;;1.70;;
71204;SDS011;58935;54.498;18.544;2023-08-31T07:44:24;1.80;;;1.30;;
71204;SDS011;58935;54.498;18.544;2023-08-31T07:46:50;6.10;;;1.60;;
71204;SDS011;58935;54.498;18.544;2023-08-31T07:49:16;2.90;;;1.40;;
71204;SDS011;58935;54.498;18.544;2023-08-31T07:51:42;2.30;;;1.40;;
71204;SDS011;58935;54.498;18.544;2023-08-31T07:54:07;5.60;;;1.60;;
71204;SDS011;58935;54.498;18.544;2023-08-31T07:56:32;6.10;;;1.90;;
71204;SDS011;58935;54.498;18.544;2023-08-31T07:58:58;35.20;;;2.40;;
71204;SDS011;58935;54.498;18.544;2023-08-31T08:01:23;29.20;;;2.10;;
71204;SDS011;58935;54.498;18.544;2023-08-31T08:03:49;2.70;;;1.30;;
71204;SDS011;58935;54.498;18.544;2023-08-31T08:06:14;10.80;;;1.70;;
71204;SDS011;58935;54.498;18.544;2023-08-31T08:08:40;1.30;;;1.20;;
71204;SDS011;58935;54.498;18.544;2023-08-31T08:11:05;1.30;;;1.20;;
71204;SDS011;58935;54.498;18.544;2023-08-31T08:13:30;2.80;;;1.70;;
71204;SDS011;58935;54.498;18.544;2023-08-31T08:15:56;4.10;;;1.70;;
71204;SDS011;58935;54.498;18.544;2023-08-31T08:18:21;1.70;;;1.30;;
71204;SDS011;58935;54.498;18.544;2023-08-31T08:20:47;1.80;;;1.30;;
71204;SDS011;58935;54.498;18.544;2023-08-31T08:23:14;1.50;;;1.40;;
71204;SDS011;58935;54.498;18.544;2023-08-31T08:25:40;2.90;;;1.60;;
71204;SDS011;58935;54.498;18.544;2023-08-31T08:28:05;2.20;;;1.40;;
71204;SDS011;58935;54.498;18.544;2023-08-31T08:30:31;1.40;;;1.20;;
71204;SDS011;58935;54.498;18.544;2023-08-31T08:32:56;1.60;;;1.20;;
71204;SDS011;58935;54.498;18.544;2023-08-31T08:35:22;3.80;;;1.30;;
71204;SDS011;58935;54.498;18.544;2023-08-31T08:37:47;1.40;;;1.30;;
71204;SDS011;58935;54.498;18.544;2023-08-31T08:40:13;1.40;;;1.30;;
71204;SDS011;58935;54.498;18.544;2023-08-31T08:42:41;1.20;;;1.20;;
71204;SDS011;58935;54.498;18.544;2023-08-31T08:45:12;2.70;;;1.30;;
71204;SDS011;58935;54.498;18.544;2023-08-31T08:47:40;1.40;;;1.30;;
71204;SDS011;58935;54.498;18.544;2023-08-31T08:50:09;2.50;;;1.20;;
71204;SDS011;58935;54.498;18.544;2023-08-31T08:52:36;1.80;;;1.10;;
71204;SDS011;58935;54.498;18.544;2023-08-31T08:55:02;1.40;;;1.30;;
71204;SDS011;58935;54.498;18.544;2023-08-31T08:57:30;1.90;;;1.00;;
71204;SDS011;58935;54.498;18.544;2023-08-31T08:59:58;1.30;;;1.00;;
71204;SDS011;58935;54.498;18.544;2023-08-31T09:02:24;1.40;;;1.30;;
71204;SDS011;58935;54.498;18.544;2023-08-31T09:04:49;0.90;;;0.90;;
71204;SDS011;58935;54.498;18.544;2023-08-31T09:07:20;1.40;;;1.10;;
71204;SDS011;58935;54.498;18.544;2023-08-31T09:09:54;1.50;;;1.20;;
71204;SDS011;58935;54.498;18.544;2023-08-31T09:12:23;2.20;;;1.00;;
71204;SDS011;58935;54.498;18.544;2023-08-31T09:15:02;1.40;;;1.00;;
71204;SDS011;58935;54.498;18.544;2023-08-31T09:17:38;2.80;;;1.40;;
71204;SDS011;58935;54.498;18.544;2023-08-31T09:20:05;1.60;;;1.30;;
71204;SDS011;58935;54.498;18.544;2023-08-31T09:22:32;1.20;;;1.10;;
71204;SDS011;58935;54.498;18.544;2023-08-31T09:24:58;1.20;;;1.10;;
71204;SDS011;58935;54.498;18.544;2023-08-31T09:27:23;1.60;;;1.10;;
71204;SDS011;58935;54.498;18.544;2023-08-31T09:29:50;1.50;;;1.10;;
71204;SDS011;58935;54.498;18.544;2023-08-31T09:32:19;2.60;;;1.60;;
71204;SDS011;58935;54.498;18.544;2023-08-31T09:34:45;1.10;;;1.10;;
71204;SDS011;58935;54.498;18.544;2023-08-31T09:37:11;2.80;;;1.30;;
71204;SDS011;58935;54.498;18.544;2023-08-31T09:39:38;1.30;;;1.20;;
71204;SDS011;58935;54.498;18.544;2023-08-31T09:42:05;2.20;;;1.50;;
71204;SDS011;58935;54.498;18.544;2023-08-31T09:44:31;2.30;;;1.10;;
71204;SDS011;58935;54.498;18.544;2023-08-31T09:46:57;1.50;;;1.30;;
71204;SDS011;58935;54.498;18.544;2023-08-31T09:49:23;3.10;;;1.20;;
71204;SDS011;58935;54.498;18.544;2023-08-31T09:51:50;1.10;;;1.10;;
71204;SDS011;58935;54.498;18.544;2023-08-31T09:54:18;1.10;;;1.10;;
71204;SDS011;58935;54.498;18.544;2023-08-31T09:56:46;2.60;;;1.70;;
71204;SDS011;58935;54.498;18.544;2023-08-31T09:59:14;3.50;;;1.30;;
71204;SDS011;58935;54.498;18.544;2023-08-31T10:01:42;1.50;;;1.40;;
71204;SDS011;58935;54.498;18.544;2023-08-31T10:04:09;3.70;;;1.40;;
71204;SDS011;58935;54.498;18.544;2023-08-31T10:06:38;2.10;;;1.20;;
71204;SDS011;58935;54.498;18.544;2023-08-31T10:09:05;1.80;;;1.50;;
71204;SDS011;58935;54.498;18.544;2023-08-31T10:11:32;1.90;;;1.10;;
71204;SDS011;58935;54.498;18.544;2023-08-31T10:13:58;2.40;;;1.60;;
71204;SDS011;58935;54.498;18.544;2023-08-31T10:16:27;4.20;;;1.40;;
71204;SDS011;58935;54.498;18.544;2023-08-31T10:18:53;1.20;;;1.10;;
71204;SDS011;58935;54.498;18.544;2023-08-31T10:21:20;1.50;;;1.20;;
71204;SDS011;58935;54.498;18.544;2023-08-31T10:23:47;2.40;;;1.20;;
71204;SDS011;58935;54.498;18.544;2023-08-31T10:26:29;1.10;;;1.00;;
71204;SDS011;58935;54.498;18.544;2023-08-31T10:28:57;1.20;;;1.10;;
71204;SDS011;58935;54.498;18.544;2023-08-31T10:31:28;1.20;;;1.10;;
71204;SDS011;58935;54.498;18.544;2023-08-31T10:34:02;1.80;;;1.20;;
71204;SDS011;58935;54.498;18.544;2023-08-31T10:36:38;2.20;;;1.30;;
71204;SDS011;58935;54.498;18.544;2023-08-31T10:41:57;1.90;;;1.20;;
71204;SDS011;58935;54.498;18.544;2023-08-31T10:44:30;1.50;;;1.40;;
71204;SDS011;58935;54.498;18.544;2023-08-31T10:46:59;1.10;;;1.00;;
71204;SDS011;58935;54.498;18.544;2023-08-31T10:49:28;1.50;;;1.20;;
71204;SDS011;58935;54.498;18.544;2023-08-31T10:51:55;2.50;;;1.40;;
71204;SDS011;58935;54.498;18.544;2023-08-31T10:54:26;1.30;;;1.20;;
71204;SDS011;58935;54.498;18.544;2023-08-31T10:57:03;2.30;;;1.30;;
71204;SDS011;58935;54.498;18.544;2023-08-31T10:59:47;1.40;;;1.20;;
71204;SDS011;58935;54.498;18.544;2023-08-31T11:02:33;1.60;;;1.30;;
71204;SDS011;58935;54.498;18.544;2023-08-31T11:05:14;4.80;;;1.50;;
71204;SDS011;58935;54.498;18.544;2023-08-31T11:07:45;1.30;;;1.20;;
71204;SDS011;58935;54.498;18.544;2023-08-31T11:10:20;1.80;;;1.30;;
71204;SDS011;58935;54.498;18.544;2023-08-31T11:12:50;2.10;;;1.20;;
71204;SDS011;58935;54.498;18.544;2023-08-31T11:15:19;1.70;;;1.40;;
71204;SDS011;58935;54.498;18.544;2023-08-31T11:17:46;1.80;;;1.40;;
71204;SDS011;58935;54.498;18.544;2023-08-31T11:20:16;2.60;;;1.40;;
71204;SDS011;58935;54.498;18.544;2023-08-31T11:22:45;2.40;;;1.40;;
71204;SDS011;58935;54.498;18.544;2023-08-31T11:25:13;1.40;;;1.30;;
71204;SDS011;58935;54.498;18.544;2023-08-31T11:27:39;4.70;;;1.40;;
71204;SDS011;58935;54.498;18.544;2023-08-31T11:30:13;1.50;;;1.30;;
71204;SDS011;58935;54.498;18.544;2023-08-31T11:32:45;2.30;;;1.50;;
71204;SDS011;58935;54.498;18.544;2023-08-31T11:35:15;1.30;;;1.20;;
71204;SDS011;58935;54.498;18.544;2023-08-31T11:37:43;1.60;;;1.20;;
71204;SDS011;58935;54.498;18.544;2023-08-31T11:40:10;1.10;;;1.00;;
71204;SDS011;58935;54.498;18.544;2023-08-31T11:42:54;2.40;;;1.60;;
71204;SDS011;58935;54.498;18.544;2023-08-31T11:45:21;3.20;;;1.20;;
71204;SDS011;58935;54.498;18.544;2023-08-31T11:47:49;6.80;;;1.80;;
71204;SDS011;58935;54.498;18.544;2023-08-31T11:50:16;4.30;;;1.70;;
71204;SDS011;58935;54.498;18.544;2023-08-31T11:52:42;3.50;;;1.80;;
71204;SDS011;58935;54.498;18.544;2023-08-31T11:55:13;1.60;;;1.50;;
71204;SDS011;58935;54.498;18.544;2023-08-31T11:57:40;2.20;;;1.50;;
71204;SDS011;58935;54.498;18.544;2023-08-31T12:00:06;3.30;;;1.50;;
71204;SDS011;58935;54.498;18.544;2023-08-31T12:02:35;2.30;;;1.60;;
71204;SDS011;58935;54.498;18.544;2023-08-31T12:05:01;3.30;;;1.60;;
71204;SDS011;58935;54.498;18.544;2023-08-31T12:07:27;5.70;;;1.30;;
71204;SDS011;58935;54.498;18.544;2023-08-31T12:09:52;2.00;;;1.60;;
71204;SDS011;58935;54.498;18.544;2023-08-31T12:12:21;2.60;;;1.50;;
71204;SDS011;58935;54.498;18.544;2023-08-31T12:14:47;1.80;;;1.50;;
71204;SDS011;58935;54.498;18.544;2023-08-31T12:17:12;54.50;;;2.90;;
71204;SDS011;58935;54.498;18.544;2023-08-31T12:19:39;16.50;;;1.90;;
71204;SDS011;58935;54.498;18.544;2023-08-31T12:22:05;4.40;;;1.50;;
71204;SDS011;58935;54.498;18.544;2023-08-31T12:24:39;2.40;;;1.40;;
71204;SDS011;58935;54.498;18.544;2023-08-31T12:27:06;2.80;;;1.50;;
71204;SDS011;58935;54.498;18.544;2023-08-31T12:29:32;5.10;;;1.60;;
71204;SDS011;58935;54.498;18.544;2023-08-31T12:31:58;1.70;;;1.50;;
71204;SDS011;58935;54.498;18.544;2023-08-31T12:34:24;2.60;;;1.50;;
71204;SDS011;58935;54.498;18.544;2023-08-31T12:36:49;2.10;;;1.50;;
71204;SDS011;58935;54.498;18.544;2023-08-31T12:39:14;5.40;;;1.60;;
71204;SDS011;58935;54.498;18.544;2023-08-31T12:41:40;2.30;;;1.60;;
71204;SDS011;58935;54.498;18.544;2023-08-31T12:44:06;1.50;;;1.40;;
71204;SDS011;58935;54.498;18.544;2023-08-31T12:46:32;2.70;;;1.40;;
71204;SDS011;58935;54.498;18.544;2023-08-31T12:49:02;2.80;;;1.70;;
71204;SDS011;58935;54.498;18.544;2023-08-31T12:51:29;2.20;;;1.50;;
71204;SDS011;58935;54.498;18.544;2023-08-31T12:53:56;2.70;;;1.40;;
71204;SDS011;58935;54.498;18.544;2023-08-31T12:56:25;2.20;;;1.70;;
71204;SDS011;58935;54.498;18.544;2023-08-31T12:58:52;2.60;;;1.70;;
71204;SDS011;58935;54.498;18.544;2023-08-31T13:01:20;7.00;;;1.80;;
71204;SDS011;58935;54.498;18.544;2023-08-31T13:03:48;4.10;;;1.50;;
71204;SDS011;58935;54.498;18.544;2023-08-31T13:06:14;1.90;;;1.60;;
71204;SDS011;58935;54.498;18.544;2023-08-31T13:08:41;1.20;;;1.20;;
71204;SDS011;58935;54.498;18.544;2023-08-31T13:11:10;1.80;;;1.50;;
71204;SDS011;58935;54.498;18.544;2023-08-31T13:13:36;2.80;;;1.70;;
71204;SDS011;58935;54.498;18.544;2023-08-31T13:16:01;1.90;;;1.60;;
71204;SDS011;58935;54.498;18.544;2023-08-31T13:18:28;2.10;;;1.80;;
71204;SDS011;58935;54.498;18.544;2023-08-31T13:20:54;1.70;;;1.60;;
71204;SDS011;58935;54.498;18.544;2023-08-31T13:23:21;1.90;;;1.70;;
71204;SDS011;58935;54.498;18.544;2023-08-31T13:25:48;1.80;;;1.70;;
71204;SDS011;58935;54.498;18.544;2023-08-31T13:28:15;3.10;;;2.10;;
71204;SDS011;58935;54.498;18.544;2023-08-31T13:30:40;1.90;;;1.80;;
71204;SDS011;58935;54.498;18.544;2023-08-31T13:33:07;1.70;;;1.60;;
71204;SDS011;58935;54.498;18.544;2023-08-31T13:35:33;2.30;;;2.10;;
71204;SDS011;58935;54.498;18.544;2023-08-31T13:37:59;7.80;;;2.00;;
71204;SDS011;58935;54.498;18.544;2023-08-31T13:40:25;3.20;;;2.00;;
71204;SDS011;58935;54.498;18.544;2023-08-31T13:42:55;5.30;;;2.40;;
71204;SDS011;58935;54.498;18.544;2023-08-31T13:47:50;3.30;;;2.80;;
71204;SDS011;58935;54.498;18.544;2023-08-31T13:50:16;3.50;;;2.70;;
71204;SDS011;58935;54.498;18.544;2023-08-31T13:52:41;3.60;;;2.90;;
71204;SDS011;58935;54.498;18.544;2023-08-31T13:55:07;2.50;;;2.30;;
71204;SDS011;58935;54.498;18.544;2023-08-31T13:57:33;3.20;;;2.40;;
71204;SDS011;58935;54.498;18.544;2023-08-31T13:59:59;4.30;;;2.90;;
71204;SDS011;58935;54.498;18.544;2023-08-31T14:02:25;5.60;;;3.20;;
71204;SDS011;58935;54.498;18.544;2023-08-31T14:04:51;4.80;;;3.00;;
71204;SDS011;58935;54.498;18.544;2023-08-31T14:07:17;3.90;;;2.60;;
71204;SDS011;58935;54.498;18.544;2023-08-31T14:09:43;3.30;;;2.90;;
71204;SDS011;58935;54.498;18.544;2023-08-31T14:12:08;3.60;;;3.10;;
71204;SDS011;58935;54.498;18.544;2023-08-31T14:14:34;7.00;;;3.60;;
71204;SDS011;58935;54.498;18.544;2023-08-31T14:17:00;4.20;;;3.10;;
71204;SDS011;58935;54.498;18.544;2023-08-31T14:19:25;3.20;;;2.90;;
71204;SDS011;58935;54.498;18.544;2023-08-31T14:21:51;3.80;;;3.40;;
71204;SDS011;58935;54.498;18.544;2023-08-31T14:24:18;4.90;;;3.30;;
71204;SDS011;58935;54.498;18.544;2023-08-31T14:26:44;4.40;;;3.50;;
71204;SDS011;58935;54.498;18.544;2023-08-31T14:29:10;5.70;;;3.80;;
71204;SDS011;58935;54.498;18.544;2023-08-31T14:31:36;5.10;;;3.30;;
71204;SDS011;58935;54.498;18.544;2023-08-31T14:34:01;3.80;;;3.00;;
71204;SDS011;58935;54.498;18.544;2023-08-31T14:36:27;5.40;;;3.80;;
71204;SDS011;58935;54.498;18.544;2023-08-31T14:38:53;4.80;;;3.90;;
71204;SDS011;58935;54.498;18.544;2023-08-31T14:41:18;4.30;;;3.40;;
71204;SDS011;58935;54.498;18.544;2023-08-31T14:43:43;4.40;;;3.50;;
71204;SDS011;58935;54.498;18.544;2023-08-31T14:46:09;3.70;;;3.40;;
71204;SDS011;58935;54.498;18.544;2023-08-31T14:48:34;4.90;;;3.60;;